Map

Track Data

SID SEASON NUMBER BASIN SUBBASIN NAME ISO_TIME NATURE LAT LON WMO_WIND WMO_PRES WMO_AGENCY TRACK_TYPE DIST2LAND LANDFALL IFLAG USA_AGENCY USA_ATCF_ID USA_LAT USA_LON USA_RECORD USA_STATUS USA_WIND USA_PRES USA_SSHS USA_R34_NE USA_R34_SE USA_R34_SW USA_R34_NW USA_R50_NE USA_R50_SE USA_R50_SW USA_R50_NW USA_R64_NE USA_R64_SE USA_R64_SW USA_R64_NW USA_POCI USA_ROCI USA_RMW USA_EYE TOKYO_LAT TOKYO_LON TOKYO_GRADE TOKYO_WIND TOKYO_PRES TOKYO_R50_DIR TOKYO_R50_LONG TOKYO_R50_SHORT TOKYO_R30_DIR TOKYO_R30_LONG TOKYO_R30_SHORT TOKYO_LAND CMA_LAT CMA_LON CMA_CAT CMA_WIND CMA_PRES HKO_LAT HKO_LON HKO_CAT HKO_WIND HKO_PRES NEWDELHI_LAT NEWDELHI_LON NEWDELHI_GRADE NEWDELHI_WIND NEWDELHI_PRES NEWDELHI_CI NEWDELHI_DP NEWDELHI_POCI REUNION_LAT REUNION_LON REUNION_TYPE REUNION_WIND REUNION_PRES REUNION_TNUM REUNION_CI REUNION_RMW REUNION_R34_NE REUNION_R34_SE REUNION_R34_SW REUNION_R34_NW REUNION_R50_NE REUNION_R50_SE REUNION_R50_SW REUNION_R50_NW REUNION_R64_NE REUNION_R64_SE REUNION_R64_SW REUNION_R64_NW BOM_LAT BOM_LON BOM_TYPE BOM_WIND BOM_PRES BOM_TNUM BOM_CI BOM_RMW BOM_R34_NE BOM_R34_SE BOM_R34_SW BOM_R34_NW BOM_R50_NE BOM_R50_SE BOM_R50_SW BOM_R50_NW BOM_R64_NE BOM_R64_SE BOM_R64_SW BOM_R64_NW BOM_ROCI BOM_POCI BOM_EYE BOM_POS_METHOD BOM_PRES_METHOD NADI_LAT NADI_LON NADI_CAT NADI_WIND NADI_PRES WELLINGTON_LAT WELLINGTON_LON WELLINGTON_WIND WELLINGTON_PRES DS824_LAT DS824_LON DS824_STAGE DS824_WIND DS824_PRES TD9636_LAT TD9636_LON TD9636_STAGE TD9636_WIND TD9636_PRES TD9635_LAT TD9635_LON TD9635_WIND TD9635_PRES TD9635_ROCI NEUMANN_LAT NEUMANN_LON NEUMANN_CLASS NEUMANN_WIND NEUMANN_PRES MLC_LAT MLC_LON MLC_CLASS MLC_WIND MLC_PRES USA_GUST BOM_GUST BOM_GUST_PER REUNION_GUST REUNION_GUST_PER USA_SEAHGT USA_SEARAD_NE USA_SEARAD_SE USA_SEARAD_SW USA_SEARAD_NW STORM_SPEED STORM_DIR
1911021S16073 1911 5 SI MM NOT_NAMED 1911-01-21 06:00:00 NR -16.3000 73.1000 spur-split 1675 1627 __________O___ -1 -16.3000 73.1000 7 10 244
1911021S16073 1911 5 SI MM NOT_NAMED 1911-01-21 09:00:00 NR -16.5165 72.6397 spur-split 1617 1570 __________P___ -1 -16.5165 72.6397 7 10 244
1911021S16073 1911 5 SI MM NOT_NAMED 1911-01-21 12:00:00 NR -16.7359 72.1832 spur-split 1570 1523 __________P___ -1 -16.7359 72.1832 7 10 243
1911021S16073 1911 5 SI MM NOT_NAMED 1911-01-21 15:00:00 NR -16.9624 71.7350 spur-split 1509 1462 __________P___ -1 -16.9624 71.7350 7 10 241
1911021S16073 1911 5 SI MM NOT_NAMED 1911-01-21 18:00:00 NR -17.2000 71.3000 spur-split 1462 1415 __________O___ -1 -17.2000 71.3000 7 10 239
1911021S16073 1911 5 SI MM NOT_NAMED 1911-01-21 21:00:00 NR -17.4506 70.8814 spur-split 1412 1366 __________P___ -1 -17.4506 70.8814 7 9 237
1911021S16073 1911 5 SI MM NOT_NAMED 1911-01-22 00:00:00 NR -17.7071 70.4773 spur-split 1366 1319 __________P___ -1 -17.7071 70.4773 7 9 236
1911021S16073 1911 5 SI MM NOT_NAMED 1911-01-22 03:00:00 NR -17.9600 70.0846 spur-split 1317 1270 __________P___ -1 -17.9600 70.0846 7 9 236
1911021S16073 1911 5 SI MM NOT_NAMED 1911-01-22 06:00:00 NR -18.2000 69.7000 spur-split 1270 1224 __________O___ -1 -18.2000 69.7000 7 9 238
1911021S16073 1911 5 SI MM NOT_NAMED 1911-01-22 09:00:00 NR -18.4140 69.3254 spur-split 1224 1189 __________P___ -1 -18.4140 69.3254 7 8 240
1911021S16073 1911 5 SI MM NOT_NAMED 1911-01-22 12:00:00 NR -18.6144 68.9568 spur-split 1189 1143 __________P___ -1 -18.6144 68.9568 7 8 241
1911021S16073 1911 5 SI MM NOT_NAMED 1911-01-22 15:00:00 NR -18.8077 68.5848 spur-split 1143 1098 __________P___ -1 -18.8077 68.5848 7 8 242
1911021S16073 1911 5 SI MM NOT_NAMED 1911-01-22 18:00:00 NR -19.0000 68.2000 spur-split 1098 1053 __________O___ -1 -19.0000 68.2000 7 9 242
1911021S16073 1911 5 SI MM NOT_NAMED 1911-01-22 21:00:00 NR -19.2040 67.7852 spur-split 1053 1008 __________P___ -1 -19.2040 67.7852 7 9 243
1911021S16073 1911 5 SI MM NOT_NAMED 1911-01-23 00:00:00 NR -19.4074 67.3574 spur-split 1008 954 __________P___ -1 -19.4074 67.3574 7 9 244
1911021S16073 1911 5 SI MM NOT_NAMED 1911-01-23 03:00:00 NR -19.6071 66.9258 spur-split 954 910 __________P___ -1 -19.6071 66.9258 7 9 244
1911021S16073 1911 5 SI MM NOT_NAMED 1911-01-23 06:00:00 NR -19.8000 66.5000 spur-split 910 866 __________O___ -1 -19.8000 66.5000 7 8 244
1911021S16073 1911 5 SI MM NOT_NAMED 1911-01-23 09:00:00 NR -19.9692 66.1203 spur-split 866 834 __________P___ -1 -19.9692 66.1203 7 8 245
1911021S16073 1911 5 SI MM NOT_NAMED 1911-01-23 12:00:00 NR -20.1337 65.7436 spur-split 824 792 __________P___ -1 -20.1337 65.7436 7 8 245
1911021S16073 1911 5 SI MM NOT_NAMED 1911-01-23 15:00:00 NR -20.3065 65.3451 spur-split 782 740 __________P___ -1 -20.3065 65.3451 7 9 245
1911021S16073 1911 5 SI MM NOT_NAMED 1911-01-23 18:00:00 NR -20.5000 64.9000 spur-split 740 688 __________O___ -1 -20.5000 64.9000 7 10 245
1911021S16073 1911 5 SI MM NOT_NAMED 1911-01-23 21:00:00 NR -20.7369 64.3676 spur-split 688 629 __________P___ -1 -20.7369 64.3676 7 12 245
1911021S16073 1911 5 SI MM NOT_NAMED 1911-01-24 00:00:00 NR -20.9930 63.7881 spur-split 629 570 __________P___ -1 -20.9930 63.7881 7 12 245
1911021S16073 1911 5 SI MM NOT_NAMED 1911-01-24 03:00:00 NR -21.2525 63.1894 spur-split 572 516 __________P___ -1 -21.2525 63.1894 7 12 245
1911021S16073 1911 5 SI MM NOT_NAMED 1911-01-24 06:00:00 NR -21.5000 62.6000 spur-split 516 472 __________O___ -1 -21.5000 62.6000 7 12 247
1911021S16073 1911 5 SI MM NOT_NAMED 1911-01-24 09:00:00 NR -21.7097 62.0517 spur-split 472 423 __________P___ -1 -21.7097 62.0517 7 11 248
1911021S16073 1911 5 SI MM NOT_NAMED 1911-01-24 12:00:00 NR -21.9068 61.5190 spur-split 423 385 __________P___ -1 -21.9068 61.5190 7 11 248
1911021S16073 1911 5 SI MM NOT_NAMED 1911-01-24 15:00:00 NR -22.1005 61.0018 spur-split 385 352 __________P___ -1 -22.1005 61.0018 7 10 247
1911021S16073 1911 5 SI MM NOT_NAMED 1911-01-24 18:00:00 NR -22.3000 60.5000 spur-split 352 334 __________O___ -1 -22.3000 60.5000 7 10 246
1911021S16073 1911 5 SI MM NOT_NAMED 1911-01-24 21:00:00 NR -22.5086 60.0300 spur-split 326 312 __________P___ -1 -22.5086 60.0300 7 10 244
1911021S16073 1911 5 SI MM NOT_NAMED 1911-01-25 00:00:00 NR -22.7260 59.5711 spur-split 314 304 __________P___ -1 -22.7260 59.5711 7 10 242
1911021S16073 1911 5 SI MM NOT_NAMED 1911-01-25 03:00:00 NR -22.9554 59.1017 spur-split 314 305 __________P___ -1 -22.9554 59.1017 7 10 242
1911021S16073 1911 5 SI MM NOT_NAMED 1911-01-25 06:00:00 NR -23.2000 58.6000 spur-split 315 312 __________O___ -1 -23.2000 58.6000 7 11 243
1911021S16073 1911 5 SI MM NOT_NAMED 1911-01-25 09:00:00 NR -23.4568 58.0237 spur-split 334 314 __________P___ -1 -23.4568 58.0237 7 12 244
1911021S16073 1911 5 SI MM NOT_NAMED 1911-01-25 12:00:00 NR -23.7279 57.4148 spur-split 314 309 __________P___ -1 -23.7279 57.4148 7 13 244
1911021S16073 1911 5 SI MM NOT_NAMED 1911-01-25 15:00:00 NR -24.0099 56.7985 spur-split 315 311 __________P___ -1 -24.0099 56.7985 7 13 243
1911021S16073 1911 5 SI MM NOT_NAMED 1911-01-25 18:00:00 NR -24.3000 56.2000 spur-split 329 328 __________O___ -1 -24.3000 56.2000 7 12 241
1911021S16073 1911 5 SI MM NOT_NAMED 1911-01-25 21:00:00 NR -24.5793 55.6681 spur-split 357 357 __________P___ -1 -24.5793 55.6681 7 11 239
1911021S16073 1911 5 SI MM NOT_NAMED 1911-01-26 00:00:00 NR -24.8681 55.1552 spur-split 393 393 __________P___ -1 -24.8681 55.1552 7 11 238
1911021S16073 1911 5 SI MM NOT_NAMED 1911-01-26 03:00:00 NR -25.1730 54.6398 spur-split 436 436 __________P___ -1 -25.1730 54.6398 7 11 237
1911021S16073 1911 5 SI MM NOT_NAMED 1911-01-26 06:00:00 NR -25.5000 54.1000 spur-split 483 483 __________O___ -1 -25.5000 54.1000 7 12 237
1911021S16073 1911 5 SI MM NOT_NAMED 1911-01-26 09:00:00 NR -25.8413 53.4951 spur-split 535 535 __________P___ -1 -25.8413 53.4951 7 13 238
1911021S16073 1911 5 SI MM NOT_NAMED 1911-01-26 12:00:00 NR -26.2051 52.8641 spur-split 593 546 __________P___ -1 -26.2051 52.8641 7 14 237
1911021S16073 1911 5 SI MM NOT_NAMED 1911-01-26 15:00:00 NR -26.5913 52.2260 spur-split 540 501 __________P___ -1 -26.5913 52.2260 7 14 235
1911021S16073 1911 5 SI MM NOT_NAMED 1911-01-26 18:00:00 NR -27.0000 51.6000 spur-split 501 472 __________O___ -1 -27.0000 51.6000 7 14 232
1911021S16073 1911 5 SI MM NOT_NAMED 1911-01-26 21:00:00 NR -27.4308 51.0007 spur-split 472 460 __________P___ -1 -27.4308 51.0007 7 14 230
1911021S16073 1911 5 SI MM NOT_NAMED 1911-01-27 00:00:00 NR -27.8786 50.4236 spur-split 460 453 __________P___ -1 -27.8786 50.4236 7 14 228
1911021S16073 1911 5 SI MM NOT_NAMED 1911-01-27 03:00:00 NR -28.3372 49.8597 spur-split 458 455 __________P___ -1 -28.3372 49.8597 7 14 227
1911021S16073 1911 5 SI MM NOT_NAMED 1911-01-27 06:00:00 NR -28.8000 49.3000 spur-split 471 __________O___ -1 -28.8000 49.3000 7 14 227

About IBTrACS Database

This database is a web-friendly format of International Best Track Archive for Climate Stewardship (IBTrACS), a global best track data archive curated by NOAA dating back to 1842.

Updated: 2021-10-19